Time;durP1;ratioP1;P1;durP2;ratioP2;P2;SDS_P1;SDS_P2;PMS_P1;PMS_P2;Temp;Humidity;BMP_temperature;BMP_pressure;BME280_temperature;BME280_humidity;BME280_pressure;Samples;Min_cycle;Max_cycle;Signal;HPM_P1;HPM_P2
2022/07/09 00:00:12;;;;;;;8.68;3.90;;;17.60;99.90;;;;;;5070282;28;20426;-51
2022/07/09 00:02:37;;;;;;;24.42;2.78;;;17.70;99.90;;;;;;5069967;28;20047;-50
2022/07/09 00:05:03;;;;;;;5.35;2.60;;;17.60;99.90;;;;;;5070071;28;20044;-49
2022/07/09 00:07:29;;;;;;;5.30;2.90;;;17.40;99.90;;;;;;5052052;28;20033;-50
2022/07/09 00:09:55;;;;;;;8.93;3.33;;;17.30;99.90;;;;;;5070154;28;20068;-49
2022/07/09 00:12:20;;;;;;;7.60;3.67;;;17.30;99.90;;;;;;5070355;28;20078;-51
2022/07/09 00:14:46;;;;;;;7.10;3.88;;;17.30;99.90;;;;;;5070112;28;20040;-51
2022/07/09 00:17:13;;;;;;;9.20;4.00;;;17.30;99.90;;;;;;5052127;28;20468;-52
2022/07/09 00:19:39;;;;;;;7.07;4.10;;;17.20;99.90;;;;;;5070018;28;20071;-51
2022/07/09 00:22:05;;;;;;;7.47;3.97;;;17.30;99.90;;;;;;5069617;28;20468;-53
2022/07/09 00:24:31;;;;;;;7.97;4.30;;;17.30;99.90;;;;;;5055221;28;20491;-52
2022/07/09 00:26:57;;;;;;;7.55;4.07;;;17.20;99.90;;;;;;5073641;28;20123;-51
2022/07/09 00:29:23;;;;;;;7.43;4.47;;;17.20;99.90;;;;;;5073525;28;20468;-49
2022/07/09 00:31:49;;;;;;;7.53;4.10;;;17.20;99.90;;;;;;5073944;28;20042;-52
2022/07/09 00:34:14;;;;;;;6.55;4.05;;;17.20;99.90;;;;;;5073331;28;20553;-49
2022/07/09 00:36:40;;;;;;;7.78;4.18;;;17.20;99.90;;;;;;5055767;28;20056;-51
2022/07/09 00:39:06;;;;;;;6.88;3.88;;;17.20;99.90;;;;;;5073293;28;20032;-50
2022/07/09 00:41:31;;;;;;;6.60;4.00;;;17.10;99.90;;;;;;5055488;28;20072;-49
2022/07/09 00:43:57;;;;;;;7.20;3.35;;;17.10;99.90;;;;;;5071559;28;20541;-48
2022/07/09 00:46:23;;;;;;;5.10;2.85;;;17.00;99.90;;;;;;5072944;28;20037;-51
2022/07/09 00:48:48;;;;;;;4.53;2.33;;;17.00;99.90;;;;;;5073326;28;20040;-50
2022/07/09 00:51:16;;;;;;;4.10;1.98;;;16.90;99.90;;;;;;5072953;28;20032;-52
2022/07/09 00:53:42;;;;;;;3.08;1.90;;;16.90;99.90;;;;;;5073312;28;20058;-51
2022/07/09 00:56:08;;;;;;;11.93;2.35;;;16.80;99.90;;;;;;5072933;28;20048;-49
2022/07/09 00:58:35;;;;;;;3.75;1.60;;;16.70;99.90;;;;;;5072912;28;20510;-50
2022/07/09 01:01:01;;;;;;;8.05;2.20;;;16.60;99.90;;;;;;5072893;28;20407;-52
2022/07/09 01:03:27;;;;;;;10.15;2.00;;;16.60;99.90;;;;;;5073282;28;20040;-51
2022/07/09 01:05:55;;;;;;;6.03;2.15;;;16.40;99.90;;;;;;5072805;28;20044;-49
2022/07/09 01:08:21;;;;;;;8.40;1.92;;;16.40;99.90;;;;;;5073239;28;20041;-52
2022/07/09 01:10:48;;;;;;;18.00;2.90;;;16.30;99.90;;;;;;5072603;28;20041;-52
2022/07/09 01:13:13;;;;;;;9.68;2.30;;;16.30;99.90;;;;;;5054695;28;20040;-50
2022/07/09 01:15:39;;;;;;;19.50;3.17;;;16.30;99.90;;;;;;5072936;28;20039;-49
2022/07/09 01:18:05;;;;;;;24.95;3.10;;;16.20;99.90;;;;;;5073010;28;20548;-49
2022/07/09 01:20:31;;;;;;;29.77;4.13;;;16.10;99.90;;;;;;5072700;28;20032;-52
2022/07/09 01:22:58;;;;;;;4.88;3.10;;;16.20;99.90;;;;;;5072421;28;20582;-48
2022/07/09 01:25:41;;;;;;;6.13;2.85;;;16.20;99.90;;;;;;5070945;28;20047;-48
2022/07/09 01:28:09;;;;;;;5.55;3.33;;;16.30;99.90;;;;;;5070576;28;20032;-50
2022/07/09 01:30:36;;;;;;;5.13;2.72;;;16.30;99.90;;;;;;5072619;28;20503;-51
2022/07/09 01:33:03;;;;;;;5.50;3.40;;;16.30;99.90;;;;;;5072500;28;20391;-51
2022/07/09 01:35:28;;;;;;;5.70;2.88;;;16.30;99.90;;;;;;5071446;28;20052;-51
2022/07/09 01:37:54;;;;;;;4.82;2.80;;;16.30;99.90;;;;;;5072123;28;20047;-49
2022/07/09 01:40:21;;;;;;;6.55;3.08;;;16.30;99.90;;;;;;5072262;28;20040;-52
2022/07/09 01:42:47;;;;;;;5.25;2.97;;;16.40;99.90;;;;;;5072272;28;20048;-50
2022/07/09 01:45:14;;;;;;;5.65;3.17;;;16.50;99.90;;;;;;5072114;28;20373;-49
2022/07/09 01:47:40;;;;;;;4.90;2.88;;;16.50;99.90;;;;;;5072124;28;20097;-50
2022/07/09 01:50:07;;;;;;;5.65;2.72;;;16.50;99.90;;;;;;5072057;28;20029;-50
2022/07/09 01:52:32;;;;;;;5.10;2.63;;;16.60;99.90;;;;;;5071751;28;20436;-51
2022/07/09 01:54:58;;;;;;;6.65;3.03;;;16.60;99.90;;;;;;5071558;28;20075;-51
2022/07/09 01:57:24;;;;;;;6.40;3.33;;;16.70;99.90;;;;;;5071823;28;20128;-51
2022/07/09 01:59:50;;;;;;;7.50;3.88;;;16.60;99.90;;;;;;5071944;28;20121;-50
2022/07/09 02:02:15;;;;;;;7.40;4.18;;;16.60;99.90;;;;;;5053633;28;20055;-53
2022/07/09 02:04:41;;;;;;;8.77;4.40;;;16.60;99.90;;;;;;5071792;28;20133;-51
2022/07/09 02:07:07;;;;;;;7.00;3.75;;;16.50;99.90;;;;;;5071647;28;20115;-52
2022/07/09 02:09:32;;;;;;;8.45;4.03;;;16.60;99.90;;;;;;5071820;28;20075;-50
2022/07/09 02:11:58;;;;;;;8.07;3.85;;;16.60;99.90;;;;;;5035802;28;20373;-52
2022/07/09 02:14:24;;;;;;;8.98;4.50;;;16.70;99.90;;;;;;5070101;28;20032;-50
2022/07/09 02:16:50;;;;;;;7.10;3.90;;;16.70;99.90;;;;;;5071251;28;20044;-50
2022/07/09 02:19:15;;;;;;;7.55;4.22;;;16.70;99.90;;;;;;5053344;28;20151;-51
2022/07/09 02:21:41;;;;;;;10.70;4.82;;;16.70;99.90;;;;;;5069740;28;20119;-50
2022/07/09 02:24:07;;;;;;;8.52;4.47;;;16.70;99.90;;;;;;5071351;28;20563;-51
2022/07/09 02:26:33;;;;;;;9.68;4.97;;;16.70;99.90;;;;;;5071182;28;20040;-51
2022/07/09 02:28:59;;;;;;;9.70;4.50;;;16.70;99.90;;;;;;5070820;28;20040;-52
2022/07/09 02:31:26;;;;;;;7.57;4.50;;;16.80;99.90;;;;;;5071370;28;20033;-50
2022/07/09 02:33:52;;;;;;;9.15;4.70;;;16.80;99.90;;;;;;5071413;28;20482;-54
2022/07/09 02:36:18;;;;;;;8.98;4.75;;;16.80;99.90;;;;;;5070143;28;20055;-51
2022/07/09 02:38:44;;;;;;;10.05;4.43;;;16.80;99.90;;;;;;5071196;28;20471;-51
2022/07/09 02:41:10;;;;;;;8.55;4.20;;;16.80;99.90;;;;;;5071307;28;20576;-49
2022/07/09 02:43:35;;;;;;;7.97;4.68;;;16.80;99.90;;;;;;5070922;28;20472;-52
2022/07/09 02:46:01;;;;;;;7.80;4.60;;;16.70;99.90;;;;;;5070826;28;20083;-54
2022/07/09 02:48:27;;;;;;;10.00;4.30;;;16.90;99.90;;;;;;5070804;28;20047;-53
2022/07/09 02:50:53;;;;;;;8.02;4.22;;;16.80;99.90;;;;;;5070890;28;20120;-52
2022/07/09 02:53:19;;;;;;;12.32;5.07;;;16.90;99.90;;;;;;5070059;28;20128;-53
2022/07/09 02:55:45;;;;;;;9.70;4.50;;;16.90;99.90;;;;;;5071047;28;20194;-50
2022/07/09 02:58:11;;;;;;;6.95;4.05;;;16.90;99.90;;;;;;5069520;28;20499;-51
2022/07/09 03:00:40;;;;;;;12.10;4.70;;;16.80;99.90;;;;;;5071083;28;20040;-51
2022/07/09 03:03:07;;;;;;;9.90;4.20;;;16.90;99.90;;;;;;5070484;28;20094;-51
2022/07/09 03:05:33;;;;;;;10.50;4.30;;;16.90;99.90;;;;;;5070803;28;20037;-53
2022/07/09 03:07:59;;;;;;;10.23;4.40;;;16.90;99.90;;;;;;5070421;28;20040;-51
2022/07/09 03:10:25;;;;;;;10.73;4.78;;;16.90;99.90;;;;;;5069621;28;20059;-49
2022/07/09 03:12:50;;;;;;;7.88;4.47;;;16.90;99.90;;;;;;5070480;28;20120;-54
2022/07/09 03:15:17;;;;;;;9.68;4.22;;;17.00;99.90;;;;;;5070933;28;20483;-48
2022/07/09 03:17:47;;;;;;;10.00;4.88;;;17.10;99.90;;;;;;5070556;28;20047;-52
2022/07/09 03:20:13;;;;;;;6.47;4.10;;;17.00;99.90;;;;;;5070558;28;20032;-49
2022/07/09 03:22:40;;;;;;;8.68;4.70;;;16.90;99.90;;;;;;5069787;28;20045;-50
2022/07/09 03:25:07;;;;;;;6.97;4.55;;;17.00;99.90;;;;;;5052257;28;20036;-50
2022/07/09 03:27:33;;;;;;;11.35;5.15;;;16.90;99.90;;;;;;5070494;28;20068;-50
2022/07/09 03:29:59;;;;;;;9.23;5.00;;;17.00;99.90;;;;;;5070513;28;20510;-50
2022/07/09 03:32:25;;;;;;;13.18;5.47;;;16.90;99.90;;;;;;5070655;28;20036;-48
2022/07/09 03:34:54;;;;;;;8.55;4.78;;;16.90;99.90;;;;;;5070331;28;21024;-50
2022/07/09 03:37:20;;;;;;;9.05;4.88;;;16.90;99.90;;;;;;5070808;28;20515;-52
2022/07/09 03:39:46;;;;;;;10.70;5.15;;;16.80;99.90;;;;;;5070073;28;20033;-51
2022/07/09 03:42:13;;;;;;;8.80;5.05;;;16.80;99.90;;;;;;5069748;28;20097;-52
2022/07/09 03:44:38;;;;;;;9.52;5.07;;;16.70;99.90;;;;;;5069031;28;20492;-50
2022/07/09 03:47:04;;;;;;;10.18;5.28;;;16.70;99.90;;;;;;5070117;28;20060;-49
2022/07/09 03:49:31;;;;;;;9.68;5.13;;;16.70;99.90;;;;;;5070339;28;20028;-50
2022/07/09 03:51:56;;;;;;;9.50;5.90;;;16.70;99.90;;;;;;5069668;28;20029;-51
2022/07/09 03:54:23;;;;;;;15.07;5.43;;;16.70;99.90;;;;;;5070460;28;20032;-50
2022/07/09 03:56:49;;;;;;;10.52;6.18;;;16.50;99.90;;;;;;5069709;28;20096;-51
2022/07/09 03:59:15;;;;;;;11.85;6.20;;;16.60;99.90;;;;;;5073344;28;20049;-49
2022/07/09 04:01:41;;;;;;;11.63;6.40;;;16.50;99.90;;;;;;5074242;28;20036;-49
2022/07/09 04:04:06;;;;;;;10.30;5.68;;;16.50;99.90;;;;;;5074389;28;20098;-51
2022/07/09 04:06:32;;;;;;;11.60;5.75;;;16.70;99.90;;;;;;5073624;28;20319;-49
2022/07/09 04:08:58;;;;;;;13.65;6.32;;;16.60;99.90;;;;;;5074101;28;20071;-51
2022/07/09 04:11:23;;;;;;;9.32;6.20;;;16.60;99.90;;;;;;5073488;28;20036;-53
2022/07/09 04:13:49;;;;;;;9.30;5.97;;;16.50;99.90;;;;;;5073244;28;20040;-50
2022/07/09 04:16:15;;;;;;;9.30;6.25;;;16.50;99.90;;;;;;5073809;28;20119;-50
2022/07/09 04:18:43;;;;;;;10.30;6.25;;;16.50;99.90;;;;;;5073722;28;20109;-52
2022/07/09 04:21:09;;;;;;;9.52;6.10;;;16.60;99.90;;;;;;5073874;28;20045;-51
2022/07/09 04:23:35;;;;;;;12.45;6.40;;;16.40;99.90;;;;;;5073336;28;20050;-50
2022/07/09 04:26:01;;;;;;;9.77;6.20;;;16.40;99.90;;;;;;5055727;28;20426;-52
2022/07/09 04:28:27;;;;;;;9.07;6.25;;;16.50;99.90;;;;;;5072812;28;20066;-54
2022/07/09 04:30:52;;;;;;;13.05;5.95;;;16.60;99.90;;;;;;5073566;28;20044;-49
2022/07/09 04:33:18;;;;;;;10.90;6.35;;;16.60;99.90;;;;;;5073382;28;20143;-49
2022/07/09 04:35:45;;;;;;;10.57;6.07;;;16.70;99.90;;;;;;5073222;28;20040;-52
2022/07/09 04:38:14;;;;;;;11.63;6.45;;;16.70;99.90;;;;;;5073634;28;20468;-51
2022/07/09 04:40:40;;;;;;;9.68;5.50;;;16.70;99.90;;;;;;5055254;28;20040;-51
2022/07/09 04:43:06;;;;;;;8.77;5.50;;;16.80;99.90;;;;;;5073370;28;20484;-50
2022/07/09 04:45:32;;;;;;;9.88;5.40;;;16.80;99.90;;;;;;5073410;28;20067;-52
2022/07/09 04:47:59;;;;;;;9.75;5.03;;;16.80;99.90;;;;;;5073216;28;20060;-48
2022/07/09 04:50:25;;;;;;;10.75;5.30;;;16.90;99.90;;;;;;5073602;28;20067;-53
2022/07/09 04:52:50;;;;;;;10.50;5.40;;;16.90;99.90;;;;;;5072863;28;20064;-52
2022/07/09 04:55:16;;;;;;;9.52;5.80;;;17.00;99.90;;;;;;5073189;28;20115;-51
2022/07/09 04:57:43;;;;;;;11.70;5.68;;;17.00;99.90;;;;;;5055076;28;20082;-51
2022/07/09 05:00:10;;;;;;;11.20;6.07;;;17.00;99.90;;;;;;5055033;28;20107;-52
2022/07/09 05:02:36;;;;;;;9.68;5.97;;;17.10;99.90;;;;;;5072794;28;20075;-49
2022/07/09 05:05:03;;;;;;;9.50;5.05;;;17.00;99.90;;;;;;5072926;28;20094;-49
2022/07/09 05:07:30;;;;;;;10.93;5.03;;;17.00;99.90;;;;;;5072811;28;20072;-49
2022/07/09 05:09:56;;;;;;;9.23;5.18;;;17.00;99.90;;;;;;5071833;28;20086;-52
2022/07/09 05:12:22;;;;;;;9.77;5.25;;;17.10;99.90;;;;;;5072145;28;20475;-51
2022/07/09 05:14:48;;;;;;;9.57;5.25;;;17.10;99.90;;;;;;5072481;28;20040;-52
2022/07/09 05:17:14;;;;;;;8.27;5.35;;;17.00;99.90;;;;;;5072448;28;20040;-49
2022/07/09 05:19:39;;;;;;;8.05;4.70;;;17.20;99.90;;;;;;5072532;28;20038;-48
2022/07/09 05:22:05;;;;;;;8.80;5.18;;;17.10;99.90;;;;;;5054128;28;20127;-49
2022/07/09 05:24:31;;;;;;;7.85;4.50;;;17.10;99.90;;;;;;5072884;28;20072;-50
2022/07/09 05:26:57;;;;;;;10.30;5.07;;;17.10;99.90;;;;;;5072600;28;20035;-49
2022/07/09 05:29:22;;;;;;;10.75;4.43;;;17.30;99.90;;;;;;5072336;28;20503;-49
2022/07/09 05:31:49;;;;;;;7.35;4.07;;;17.20;99.90;;;;;;5072911;28;20044;-48
2022/07/09 05:34:16;;;;;;;8.10;4.20;;;17.40;99.90;;;;;;5072584;28;20492;-52
2022/07/09 05:36:42;;;;;;;7.00;3.97;;;17.30;99.90;;;;;;5054349;28;20036;-51
2022/07/09 05:39:07;;;;;;;8.35;4.25;;;17.50;99.90;;;;;;5054595;28;20086;-52
2022/07/09 05:41:34;;;;;;;7.90;3.80;;;17.60;99.90;;;;;;5072605;28;20036;-49
2022/07/09 05:44:03;;;;;;;6.25;3.80;;;17.60;99.90;;;;;;5072195;28;20128;-52
2022/07/09 05:46:29;;;;;;;7.50;4.18;;;17.70;99.90;;;;;;5054442;28;20439;-50
2022/07/09 05:48:55;;;;;;;7.22;4.05;;;17.70;99.90;;;;;;5070936;28;20451;-50
2022/07/09 05:51:21;;;;;;;7.43;4.07;;;17.70;99.90;;;;;;5071884;28;20076;-51
2022/07/09 05:53:46;;;;;;;6.25;3.55;;;17.90;99.90;;;;;;5071861;28;20115;-49
2022/07/09 05:56:12;;;;;;;9.73;4.78;;;17.90;99.90;;;;;;5071901;28;20048;-48
2022/07/09 05:58:38;;;;;;;7.63;4.30;;;17.80;99.90;;;;;;5070809;28;20054;-49
2022/07/09 06:01:05;;;;;;;7.90;3.55;;;17.80;99.90;;;;;;5071631;28;20036;-50
2022/07/09 06:03:31;;;;;;;7.90;3.80;;;17.80;99.90;;;;;;5071551;28;20271;-50
2022/07/09 06:05:56;;;;;;;8.25;4.03;;;17.80;99.90;;;;;;5071878;28;20069;-51
2022/07/09 06:08:23;;;;;;;7.07;3.85;;;17.90;99.90;;;;;;5070720;28;20040;-49
2022/07/09 06:10:48;;;;;;;5.28;3.38;;;17.80;99.90;;;;;;5071974;28;20047;-51
2022/07/09 06:13:14;;;;;;;7.55;3.38;;;17.90;99.90;;;;;;5053826;28;20036;-50
2022/07/09 06:15:40;;;;;;;6.40;3.42;;;18.00;99.90;;;;;;5071644;28;20044;-48
2022/07/09 06:18:05;;;;;;;6.88;3.45;;;18.00;99.90;;;;;;5071444;28;20553;-48
2022/07/09 06:20:31;;;;;;;7.05;3.30;;;17.90;99.90;;;;;;5070823;28;20047;-49
2022/07/09 06:22:57;;;;;;;6.18;2.78;;;18.00;99.90;;;;;;5070184;28;20052;-49
2022/07/09 06:25:23;;;;;;;4.70;2.50;;;18.10;99.90;;;;;;5071042;28;20036;-49
2022/07/09 06:27:49;;;;;;;3.55;2.30;;;18.10;99.90;;;;;;5071297;28;20045;-49
2022/07/09 06:30:14;;;;;;;4.47;2.22;;;18.10;99.90;;;;;;5071317;28;20119;-50
2022/07/09 06:32:40;;;;;;;5.03;2.15;;;18.10;99.90;;;;;;5070488;28;20040;-47
2022/07/09 06:35:06;;;;;;;4.10;2.17;;;18.20;99.90;;;;;;5053179;28;20041;-53
2022/07/09 06:37:32;;;;;;;4.85;2.60;;;18.20;99.90;;;;;;5071049;28;20479;-48
2022/07/09 06:39:59;;;;;;;4.65;2.00;;;18.30;99.90;;;;;;5071029;28;20279;-50
2022/07/09 06:42:25;;;;;;;6.07;1.95;;;18.40;99.90;;;;;;5070170;28;20040;-48
2022/07/09 06:44:51;;;;;;;4.05;1.85;;;18.40;99.90;;;;;;5070716;28;20075;-49
2022/07/09 06:47:16;;;;;;;3.33;1.75;;;18.40;99.90;;;;;;5070823;28;20068;-49
2022/07/09 06:49:42;;;;;;;3.88;1.60;;;18.40;99.90;;;;;;5052852;28;20090;-48
2022/07/09 06:52:08;;;;;;;5.05;1.70;;;18.40;99.90;;;;;;5071489;28;20040;-50
2022/07/09 06:54:35;;;;;;;3.95;1.88;;;18.50;99.90;;;;;;5047557;28;20052;-47
2022/07/09 06:57:01;;;;;;;3.58;1.80;;;18.50;99.90;;;;;;5049028;28;20067;-47
2022/07/09 06:59:27;;;;;;;6.18;2.08;;;18.60;99.90;;;;;;5065799;28;20032;-48
2022/07/09 07:01:52;;;;;;;4.60;1.75;;;18.70;99.90;;;;;;5061396;28;20109;-50
2022/07/09 07:04:20;;;;;;;3.60;1.60;;;18.80;99.90;;;;;;5044929;28;20044;-48
2022/07/09 07:06:48;;;;;;;5.90;1.70;;;18.80;99.90;;;;;;5062104;28;20046;-46
2022/07/09 07:09:16;;;;;;;4.82;2.20;;;18.70;99.90;;;;;;5063362;28;20032;-50
2022/07/09 07:11:42;;;;;;;4.45;1.90;;;18.80;99.90;;;;;;5046081;28;20036;-51
2022/07/09 07:14:08;;;;;;;5.68;2.15;;;18.80;99.90;;;;;;5063508;28;20090;-52
2022/07/09 07:16:33;;;;;;;4.95;1.88;;;18.90;99.90;;;;;;5063597;28;20491;-50
2022/07/09 07:18:59;;;;;;;3.97;1.83;;;18.80;99.90;;;;;;5063922;28;20063;-50
2022/07/09 07:21:24;;;;;;;3.03;1.60;;;18.90;99.90;;;;;;5063404;28;20510;-52
2022/07/09 07:23:50;;;;;;;2.97;1.70;;;19.00;99.90;;;;;;5062758;28;20161;-52
2022/07/09 07:26:16;;;;;;;3.83;1.85;;;19.10;99.90;;;;;;5063599;28;20036;-51
2022/07/09 07:28:41;;;;;;;5.05;1.80;;;19.10;99.90;;;;;;5062983;28;20032;-49
2022/07/09 07:31:07;;;;;;;4.25;1.90;;;19.20;99.90;;;;;;5063573;28;20091;-52
2022/07/09 07:33:33;;;;;;;4.70;1.88;;;19.20;99.90;;;;;;5062400;28;20108;-52
2022/07/09 07:35:58;;;;;;;5.78;1.83;;;19.20;99.90;;;;;;5062796;28;20119;-50
2022/07/09 07:38:27;;;;;;;4.65;2.08;;;19.20;99.90;;;;;;5047250;28;20071;-51
2022/07/09 07:40:53;;;;;;;4.00;1.85;;;19.20;99.90;;;;;;5062832;28;20041;-49
2022/07/09 07:43:19;;;;;;;4.55;2.08;;;19.30;99.90;;;;;;5063198;28;20044;-50
2022/07/09 07:45:45;;;;;;;3.67;2.03;;;19.20;99.90;;;;;;5078995;28;20098;-50
2022/07/09 07:48:10;;;;;;;5.18;1.88;;;19.20;99.90;;;;;;5045890;28;20426;-49
2022/07/09 07:50:38;;;;;;;5.47;2.13;;;19.20;99.90;;;;;;5063121;28;20025;-51
2022/07/09 07:53:06;;;;;;;5.90;1.90;;;19.20;99.90;;;;;;5062450;28;20114;-50
2022/07/09 07:55:32;;;;;;;4.38;1.77;;;19.20;99.90;;;;;;5062814;28;20052;-49
2022/07/09 07:57:58;;;;;;;4.32;1.83;;;19.20;99.90;;;;;;5062506;28;20520;-49
2022/07/09 08:00:24;;;;;;;4.32;1.92;;;19.30;99.90;;;;;;5062566;28;20032;-51
2022/07/09 08:02:49;;;;;;;4.50;2.20;;;19.20;99.90;;;;;;5058361;28;20099;-51
2022/07/09 08:05:15;;;;;;;2.80;1.80;;;19.30;99.90;;;;;;5060124;28;20025;-50
2022/07/09 08:07:41;;;;;;;5.82;1.83;;;19.40;99.90;;;;;;5061173;28;20123;-49
2022/07/09 08:10:08;;;;;;;4.30;2.03;;;19.40;99.90;;;;;;5076608;28;20037;-51
2022/07/09 08:12:33;;;;;;;5.20;2.00;;;19.40;99.90;;;;;;5061427;28;20030;-52
2022/07/09 08:14:59;;;;;;;5.30;1.80;;;19.50;99.90;;;;;;5061558;28;20029;-49
2022/07/09 08:17:25;;;;;;;4.97;1.70;;;19.60;99.90;;;;;;5060701;28;20086;-50
2022/07/09 08:19:51;;;;;;;4.55;1.85;;;19.70;99.90;;;;;;5061666;28;20032;-50
2022/07/09 08:22:17;;;;;;;4.07;1.63;;;19.80;99.90;;;;;;5044702;28;20500;-50
2022/07/09 08:24:43;;;;;;;3.35;1.58;;;19.80;99.90;;;;;;5045985;28;20060;-49
2022/07/09 08:27:08;;;;;;;4.40;1.38;;;19.70;99.90;;;;;;5063259;28;20114;-49
2022/07/09 08:29:35;;;;;;;5.50;1.80;;;19.80;99.90;;;;;;5061051;28;20041;-50
2022/07/09 08:32:01;;;;;;;3.53;1.50;;;19.80;99.90;;;;;;5043450;28;20123;-51
2022/07/09 08:34:26;;;;;;;3.08;1.48;;;19.70;99.90;;;;;;5062734;28;20123;-51
2022/07/09 08:36:52;;;;;;;4.07;1.65;;;19.80;99.90;;;;;;5063596;28;20039;-51
2022/07/09 08:39:17;;;;;;;3.72;1.35;;;19.70;99.90;;;;;;5048415;28;20033;-50
2022/07/09 08:41:43;;;;;;;3.65;1.38;;;19.90;99.90;;;;;;5060599;28;20063;-50
2022/07/09 08:44:12;;;;;;;4.05;1.27;;;19.90;99.90;;;;;;5061862;28;20112;-51
2022/07/09 08:46:39;;;;;;;4.28;1.40;;;19.90;99.90;;;;;;5062154;28;20110;-51
2022/07/09 08:49:06;;;;;;;3.53;1.30;;;19.80;99.90;;;;;;5062193;28;20639;-49
2022/07/09 08:51:33;;;;;;;4.88;1.65;;;19.70;99.90;;;;;;5062261;28;20035;-50
2022/07/09 08:54:01;;;;;;;4.15;1.40;;;19.70;99.90;;;;;;5062228;28;20058;-51
2022/07/09 08:56:27;;;;;;;5.75;2.00;;;19.60;99.90;;;;;;5060727;28;20499;-51
2022/07/09 08:58:52;;;;;;;7.13;2.10;;;19.70;99.90;;;;;;5063520;28;20098;-51
2022/07/09 09:01:18;;;;;;;6.07;1.80;;;19.70;99.90;;;;;;5036252;28;20040;-50
2022/07/09 09:03:45;;;;;;;3.78;1.50;;;19.80;99.90;;;;;;5063831;28;20068;-51
2022/07/09 09:06:12;;;;;;;4.47;1.40;;;20.00;99.90;;;;;;5063032;28;20072;-51
2022/07/09 09:08:39;;;;;;;3.88;1.50;;;20.00;99.90;;;;;;5061859;28;20029;-48
2022/07/09 09:11:06;;;;;;;5.07;1.60;;;20.30;99.90;;;;;;5052986;28;20063;-48
2022/07/09 09:13:46;;;;;;;5.38;2.67;;;20.40;99.90;;;;;;5062381;28;20108;-49
2022/07/09 09:16:13;;;;;;;4.53;2.05;;;20.40;99.90;;;;;;5062226;28;20044;-50
2022/07/09 09:18:44;;;;;;;4.95;1.90;;;20.50;99.90;;;;;;5062093;28;20115;-50
2022/07/09 09:21:11;;;;;;;7.03;2.20;;;20.40;99.90;;;;;;5062167;28;20115;-47
2022/07/09 09:23:40;;;;;;;5.22;2.00;;;20.60;99.90;;;;;;5062476;28;20070;-51
2022/07/09 09:26:15;;;;;;;4.85;1.63;;;20.60;99.90;;;;;;5062055;28;20067;-51
2022/07/09 09:28:49;;;;;;;4.60;1.65;;;20.60;99.90;;;;;;5062395;28;20028;-52
2022/07/09 09:31:18;;;;;;;4.13;1.50;;;20.60;99.90;;;;;;5063242;28;20542;-52
2022/07/09 09:33:44;;;;;;;6.28;1.58;;;20.90;99.90;;;;;;5061487;28;20510;-50
2022/07/09 09:36:10;;;;;;;5.40;1.85;;;21.10;99.90;;;;;;5064223;28;20139;-48
2022/07/09 09:38:35;;;;;;;4.28;1.70;;;21.00;99.90;;;;;;5047364;28;20044;-52
2022/07/09 09:41:01;;;;;;;5.93;1.42;;;20.90;99.90;;;;;;5066041;28;20025;-49
2022/07/09 09:43:30;;;;;;;3.47;1.48;;;20.90;99.90;;;;;;5070930;28;20032;-51
2022/07/09 09:45:58;;;;;;;3.97;1.33;;;21.10;99.90;;;;;;5052755;28;20135;-49
2022/07/09 09:48:24;;;;;;;3.40;1.55;;;21.10;99.90;;;;;;5068917;28;20035;-51
2022/07/09 09:50:54;;;;;;;3.83;1.50;;;21.00;99.90;;;;;;5069199;28;20036;-53
2022/07/09 09:53:21;;;;;;;3.60;1.00;;;20.90;99.90;;;;;;5069713;28;20115;-49
2022/07/09 09:55:49;;;;;;;3.83;0.80;;;20.80;99.90;;;;;;5069475;28;20056;-48
2022/07/09 09:58:14;;;;;;;3.88;0.90;;;20.80;99.90;;;;;;5070225;28;20487;-53
2022/07/09 10:00:41;;;;;;;5.22;0.93;;;20.90;99.90;;;;;;5068902;28;20149;-48
2022/07/09 10:03:10;;;;;;;3.22;1.00;;;21.20;99.90;;;;;;5071174;28;20057;-51
2022/07/09 10:05:36;;;;;;;2.58;1.00;;;21.20;99.90;;;;;;5070964;28;20504;-48
2022/07/09 10:08:02;;;;;;;3.20;0.90;;;21.40;99.90;;;;;;5071744;28;20480;-47
2022/07/09 10:10:27;;;;;;;3.20;1.10;;;21.40;99.90;;;;;;5053512;28;20400;-49
2022/07/09 10:12:53;;;;;;;2.55;0.82;;;21.60;99.90;;;;;;5071649;28;20396;-50
2022/07/09 10:15:26;;;;;;;4.22;0.80;;;21.80;99.90;;;;;;5071630;28;20528;-48
2022/07/09 10:17:52;;;;;;;3.38;0.90;;;21.90;99.90;;;;;;5071260;28;20040;-51
2022/07/09 10:20:17;;;;;;;1.77;0.60;;;21.90;99.90;;;;;;5071428;28;20408;-49
2022/07/09 10:22:45;;;;;;;2.53;0.70;;;21.90;99.90;;;;;;5071262;28;20037;-48
2022/07/09 10:25:27;;;;;;;1.92;0.90;;;21.70;99.90;;;;;;5071114;28;20028;-50
2022/07/09 10:27:52;;;;;;;3.75;0.93;;;21.80;99.90;;;;;;5070259;28;20384;-50
2022/07/09 10:30:27;;;;;;;2.88;0.80;;;21.60;99.90;;;;;;5071048;28;20050;-47
2022/07/09 10:33:01;;;;;;;3.20;1.13;;;21.50;99.90;;;;;;5071407;28;20058;-49
2022/07/09 10:35:27;;;;;;;5.15;1.25;;;21.40;99.90;;;;;;5071249;28;20036;-48
2022/07/09 10:37:53;;;;;;;5.47;1.25;;;21.60;99.90;;;;;;5053576;28;20036;-50
2022/07/09 10:40:20;;;;;;;3.78;1.00;;;21.60;99.90;;;;;;5071050;28;20032;-50
2022/07/09 10:43:02;;;;;;;5.22;1.17;;;21.90;99.90;;;;;;5053205;28;20109;-49
2022/07/09 10:45:35;;;;;;;4.07;1.00;;;21.60;99.90;;;;;;5071099;28;20435;-51
2022/07/09 10:48:03;;;;;;;3.67;0.85;;;21.80;99.90;;;;;;5071037;28;20040;-52
2022/07/09 10:50:30;;;;;;;2.78;0.80;;;21.60;99.90;;;;;;5070800;28;20040;-49
2022/07/09 10:52:56;;;;;;;3.92;0.98;;;21.50;99.90;;;;;;5070431;28;20037;-50
2022/07/09 10:55:24;;;;;;;5.28;1.20;;;21.30;99.90;;;;;;5070762;28;20029;-50
2022/07/09 10:57:51;;;;;;;4.53;1.00;;;21.60;99.90;;;;;;5071027;28;20040;-49
2022/07/09 11:00:19;;;;;;;5.95;1.70;;;22.00;99.90;;;;;;5070946;28;20032;-52
2022/07/09 11:02:55;;;;;;;5.60;0.90;;;22.10;99.90;;;;;;5070606;28;20267;-53
2022/07/09 11:05:25;;;;;;;6.10;1.02;;;22.50;99.90;;;;;;5052827;28;20036;-50
2022/07/09 11:07:55;;;;;;;4.47;1.00;;;22.70;99.90;;;;;;5069887;28;20128;-50
2022/07/09 11:10:21;;;;;;;5.07;0.90;;;22.70;99.90;;;;;;5070481;28;20048;-50
2022/07/09 11:12:48;;;;;;;4.63;1.23;;;22.60;99.90;;;;;;5052990;28;20386;-53
2022/07/09 11:15:21;;;;;;;2.33;0.85;;;22.20;99.90;;;;;;5070681;28;20029;-51
2022/07/09 11:18:03;;;;;;;5.88;1.00;;;22.00;99.90;;;;;;5071362;28;20040;-50
2022/07/09 11:20:32;;;;;;;3.47;0.80;;;22.10;99.90;;;;;;5070397;28;20044;-52
2022/07/09 11:23:00;;;;;;;5.97;1.08;;;22.30;99.90;;;;;;5070444;28;20040;-52
2022/07/09 11:25:27;;;;;;;5.32;1.00;;;22.20;99.90;;;;;;5070418;28;20039;-50
2022/07/09 11:27:57;;;;;;;3.03;0.90;;;22.00;99.90;;;;;;5070538;28;20574;-53
2022/07/09 11:30:23;;;;;;;4.05;1.02;;;22.40;99.90;;;;;;5070695;28;20494;-51
2022/07/09 11:32:50;;;;;;;2.50;0.82;;;22.70;99.90;;;;;;5070242;28;20063;-49
2022/07/09 11:35:35;;;;;;;2.75;0.80;;;22.80;99.90;;;;;;5070277;28;20028;-51
2022/07/09 11:38:03;;;;;;;3.40;0.70;;;22.80;99.90;;;;;;5070574;28;20036;-51
2022/07/09 11:40:30;;;;;;;4.10;0.85;;;22.50;99.90;;;;;;5070497;28;20028;-50
2022/07/09 11:42:56;;;;;;;4.13;1.10;;;22.60;99.90;;;;;;5070454;28;20090;-52
2022/07/09 11:45:27;;;;;;;5.18;0.88;;;22.60;99.90;;;;;;5070046;28;20036;-52
2022/07/09 11:48:22;;;;;;;5.78;1.08;;;22.30;99.90;;;;;;5070663;28;20384;-51
2022/07/09 11:50:48;;;;;;;6.68;1.17;;;21.90;99.90;;;;;;5052955;28;20496;-54
2022/07/09 11:53:25;;;;;;;5.03;1.10;;;22.30;99.90;;;;;;5070074;28;20426;-50
2022/07/09 11:56:03;;;;;;;3.97;0.95;;;22.70;99.90;;;;;;5070060;28;20056;-50
2022/07/09 11:58:29;;;;;;;4.60;1.27;;;22.70;99.90;;;;;;5070471;28;20045;-52
2022/07/09 12:00:55;;;;;;;8.27;1.60;;;22.40;99.90;;;;;;5070028;28;20040;-51
2022/07/09 12:03:26;;;;;;;6.40;1.27;;;22.10;99.90;;;;;;5070085;28;20047;-51
2022/07/09 12:05:52;;;;;;;5.57;1.25;;;21.90;99.90;;;;;;5070141;28;20049;-49
2022/07/09 12:08:30;;;;;;;6.75;1.40;;;21.90;99.90;;;;;;5068661;28;20036;-51
2022/07/09 12:10:56;;;;;;;4.85;1.48;;;21.80;99.90;;;;;;5070212;28;20097;-51
2022/07/09 12:13:22;;;;;;;6.97;1.50;;;21.60;99.90;;;;;;5070287;28;20557;-52
2022/07/09 12:15:47;;;;;;;5.40;1.35;;;21.50;99.90;;;;;;5069947;28;20056;-49
2022/07/09 12:18:13;;;;;;;5.75;1.20;;;21.20;99.90;;;;;;5070151;28;20415;-48
2022/07/09 12:20:39;;;;;;;10.40;1.77;;;21.30;99.90;;;;;;5073580;28;20041;-51
2022/07/09 12:23:05;;;;;;;6.45;1.33;;;21.10;99.90;;;;;;5073585;28;20127;-54
2022/07/09 12:25:30;;;;;;;5.57;1.38;;;21.30;99.90;;;;;;5073940;28;20390;-51
2022/07/09 12:27:56;;;;;;;6.05;1.23;;;21.60;99.90;;;;;;5055931;28;20039;-51
2022/07/09 12:30:22;;;;;;;7.15;1.63;;;22.00;99.90;;;;;;5073727;28;20032;-52
2022/07/09 12:32:48;;;;;;;6.10;1.17;;;22.20;99.90;;;;;;5073411;28;20028;-52
2022/07/09 12:35:13;;;;;;;5.18;1.10;;;22.40;99.90;;;;;;5073631;28;20025;-54
2022/07/09 12:37:39;;;;;;;9.20;1.35;;;22.90;99.90;;;;;;5073669;28;20070;-50
2022/07/09 12:40:07;;;;;;;7.35;1.40;;;22.80;99.90;;;;;;5073499;28;20036;-52
2022/07/09 12:42:33;;;;;;;5.32;1.13;;;23.00;99.90;;;;;;5073378;28;20092;-52